createdAt,value
2023-01-30T00:00:51.568Z,16.60
2023-01-30T00:03:54.356Z,18.73
2023-01-30T00:06:56.864Z,15.45
2023-01-30T00:09:59.795Z,16.25
2023-01-30T00:13:02.294Z,16.40
2023-01-30T00:16:05.532Z,18.70
2023-01-30T00:19:08.228Z,22.02
2023-01-30T00:22:11.122Z,17.42
2023-01-30T00:25:13.860Z,17.85
2023-01-30T00:28:17.165Z,9.47
2023-01-30T00:31:19.843Z,16.27
2023-01-30T00:34:22.744Z,13.60
2023-01-30T00:37:25.405Z,13.57
2023-01-30T00:40:29.444Z,16.40
2023-01-30T00:43:50.380Z,12.87
2023-01-30T00:47:09.245Z,15.88
2023-01-30T00:50:11.816Z,12.50
2023-01-30T00:53:16.467Z,19.10
2023-01-30T00:56:19.028Z,13.48
2023-01-30T00:59:22.275Z,12.27
2023-01-30T01:02:24.946Z,15.10
2023-01-30T01:05:28.729Z,11.88
2023-01-30T01:08:31.379Z,9.40
2023-01-30T01:11:34.306Z,11.38
2023-01-30T01:14:36.823Z,11.97
2023-01-30T01:17:41.376Z,17.27
2023-01-30T01:20:43.931Z,16.60
2023-01-30T01:23:55.022Z,16.65
2023-01-30T01:26:58.570Z,11.45
2023-01-30T01:30:02.431Z,16.53
2023-01-30T01:33:05.519Z,14.47
2023-01-30T01:36:08.698Z,12.32
2023-01-30T01:39:11.377Z,11.85
2023-01-30T01:42:14.650Z,8.00
2023-01-30T01:45:23.103Z,14.03
2023-01-30T01:48:33.024Z,13.73
2023-01-30T01:51:40.153Z,12.63
2023-01-30T01:54:47.376Z,15.93
2023-01-30T01:57:56.782Z,15.65
2023-01-30T02:01:00.355Z,15.23
2023-01-30T02:04:05.016Z,8.43
2023-01-30T02:07:08.907Z,13.40
2023-01-30T02:10:17.836Z,15.30
2023-01-30T02:13:22.869Z,12.90
2023-01-30T02:16:25.556Z,14.17
2023-01-30T02:19:59.075Z,14.55
2023-01-30T02:23:37.455Z,9.88
2023-01-30T02:27:20.623Z,14.27
2023-01-30T02:30:38.950Z,13.48
2023-01-30T02:33:54.657Z,15.77
2023-01-30T02:37:12.213Z,13.52
2023-01-30T02:40:23.280Z,15.02
2023-01-30T02:43:35.724Z,16.33
2023-01-30T02:46:46.821Z,11.52
2023-01-30T02:50:00.736Z,12.83
2023-01-30T02:53:05.709Z,11.90
2023-01-30T02:56:08.973Z,17.02
2023-01-30T02:59:13.132Z,12.52
2023-01-30T03:02:37.013Z,17.62
2023-01-30T03:06:19.017Z,17.13
2023-01-30T03:09:24.609Z,13.90
2023-01-30T03:12:33.869Z,9.20
2023-01-30T03:15:44.638Z,18.52
2023-01-30T03:18:48.204Z,18.80
2023-01-30T03:21:51.623Z,17.60
2023-01-30T03:24:54.764Z,16.90
2023-01-30T03:27:57.780Z,11.60
2023-01-30T03:31:00.785Z,21.40
2023-01-30T03:34:04.275Z,20.50
2023-01-30T03:37:07.707Z,2.33
2023-01-30T03:40:12.593Z,15.50
2023-01-30T03:43:16.276Z,15.25
2023-01-30T03:46:19.032Z,10.85
2023-01-30T03:49:25.235Z,19.48
2023-01-30T03:52:27.899Z,19.03
2023-01-30T03:55:30.704Z,11.30
2023-01-30T03:58:35.300Z,17.85
2023-01-30T04:01:44.093Z,18.35
2023-01-30T04:04:46.993Z,17.15
2023-01-30T04:07:50.442Z,14.03
2023-01-30T04:10:54.431Z,16.40
2023-01-30T04:13:58.070Z,20.15
2023-01-30T04:17:00.994Z,16.85
2023-01-30T04:20:05.507Z,16.75
2023-01-30T04:23:14.264Z,19.60
2023-01-30T04:26:16.960Z,42.62
2023-01-30T04:29:20.956Z,29.42
2023-01-30T04:32:26.622Z,29.63
2023-01-30T04:35:29.695Z,20.92
2023-01-30T04:38:33.226Z,19.50
2023-01-30T04:41:36.551Z,23.27
2023-01-30T04:44:40.047Z,19.62
2023-01-30T04:47:43.418Z,26.33
2023-01-30T04:50:48.979Z,23.50
2023-01-30T04:53:51.908Z,21.27
2023-01-30T04:56:54.730Z,18.17
2023-01-30T04:59:59.108Z,21.62
2023-01-30T05:03:01.938Z,17.37
2023-01-30T05:06:05.056Z,19.52
2023-01-30T05:09:08.041Z,21.90
2023-01-30T05:12:10.954Z,22.55
2023-01-30T05:15:14.144Z,19.27
2023-01-30T05:18:17.025Z,24.63
2023-01-30T05:21:26.377Z,21.65
2023-01-30T05:24:29.240Z,27.07
2023-01-30T05:27:31.906Z,19.35
2023-01-30T05:30:34.797Z,21.05
2023-01-30T05:33:38.229Z,20.60
2023-01-30T05:36:41.135Z,64.35
2023-01-30T05:39:43.778Z,54.43
2023-01-30T05:42:46.618Z,48.67
2023-01-30T05:45:53.759Z,45.70
2023-01-30T05:48:56.650Z,60.78
2023-01-30T05:51:59.581Z,77.30
2023-01-30T05:55:02.425Z,47.10
2023-01-30T05:58:05.099Z,43.38
2023-01-30T06:01:10.688Z,28.73
2023-01-30T06:04:13.525Z,28.50
2023-01-30T06:07:16.056Z,33.75
2023-01-30T06:10:19.041Z,33.63
2023-01-30T06:13:21.630Z,40.08
2023-01-30T06:16:24.658Z,35.03
2023-01-30T06:19:27.284Z,32.10
2023-01-30T06:22:30.835Z,35.17
2023-01-30T06:25:33.662Z,33.80
2023-01-30T06:28:37.157Z,37.67
2023-01-30T06:31:39.854Z,37.75
2023-01-30T06:34:42.978Z,31.92
2023-01-30T06:37:45.994Z,22.58
2023-01-30T06:40:50.069Z,31.67
2023-01-30T06:43:52.963Z,29.50
2023-01-30T06:46:56.005Z,44.15
2023-01-30T06:49:58.756Z,48.53
2023-01-30T06:53:03.943Z,36.72
2023-01-30T06:56:07.841Z,79.10
2023-01-30T06:59:10.809Z,62.30
2023-01-30T07:02:13.679Z,47.65
2023-01-30T07:05:16.994Z,34.45
2023-01-30T07:08:20.445Z,33.22
2023-01-30T07:11:25.702Z,32.23
2023-01-30T07:14:28.495Z,32.50
2023-01-30T07:17:31.491Z,27.80
2023-01-30T07:20:34.469Z,22.30
2023-01-30T07:23:37.849Z,25.10
2023-01-30T07:26:40.899Z,28.33
2023-01-30T07:29:43.808Z,38.47
2023-01-30T07:33:00.662Z,28.70
2023-01-30T07:36:03.633Z,27.35
2023-01-30T07:39:06.418Z,31.20
2023-01-30T07:42:09.344Z,30.40
2023-01-30T07:45:12.042Z,30.27
2023-01-30T07:48:18.102Z,28.80
2023-01-30T07:51:21.177Z,24.50
2023-01-30T07:54:24.330Z,28.85
2023-01-30T07:57:26.922Z,29.13
2023-01-30T08:00:30.151Z,31.00
2023-01-30T08:03:33.345Z,24.58
2023-01-30T08:06:39.796Z,29.58
2023-01-30T08:09:42.891Z,16.40
2023-01-30T08:12:45.581Z,25.77
2023-01-30T08:15:48.525Z,23.67
2023-01-30T08:18:51.309Z,33.38
2023-01-30T08:21:54.671Z,33.13
2023-01-30T08:24:57.331Z,30.12
2023-01-30T08:28:00.646Z,25.23
2023-01-30T08:31:03.466Z,24.87
2023-01-30T08:34:06.469Z,26.45
2023-01-30T08:37:09.051Z,33.60
2023-01-30T08:40:12.684Z,28.52
2023-01-30T08:43:15.387Z,25.77
2023-01-30T08:46:18.300Z,30.67
2023-01-30T08:49:20.932Z,33.17
2023-01-30T08:52:24.019Z,28.95
2023-01-30T08:55:26.715Z,29.08
2023-01-30T08:58:29.985Z,26.97
2023-01-30T09:01:33.069Z,38.63
2023-01-30T09:04:36.190Z,36.85
2023-01-30T09:07:38.844Z,35.45
2023-01-30T09:10:41.805Z,40.63
2023-01-30T09:13:45.002Z,33.97
2023-01-30T09:16:49.740Z,36.40
2023-01-30T09:19:52.615Z,49.47
2023-01-30T09:22:55.583Z,40.30
2023-01-30T09:25:58.337Z,41.65
2023-01-30T09:29:01.361Z,28.20
2023-01-30T09:32:04.482Z,44.07
2023-01-30T09:35:08.547Z,24.85
2023-01-30T09:38:11.234Z,29.48
2023-01-30T09:41:24.489Z,34.05
2023-01-30T09:44:36.113Z,10.50
2023-01-30T09:47:48.947Z,33.67
2023-01-30T09:51:06.213Z,21.40
2023-01-30T09:54:14.993Z,27.15
2023-01-30T09:57:22.707Z,22.33
2023-01-30T10:00:25.996Z,19.03
2023-01-30T10:03:37.939Z,11.33
2023-01-30T10:06:54.657Z,10.48
2023-01-30T10:10:06.331Z,15.77
2023-01-30T10:13:28.476Z,20.10
2023-01-30T10:17:01.410Z,21.07
2023-01-30T10:20:29.841Z,22.63
2023-01-30T10:24:01.322Z,25.50
2023-01-30T10:27:04.948Z,20.92
2023-01-30T10:30:10.515Z,26.05
2023-01-30T10:33:24.282Z,24.07
2023-01-30T10:36:53.493Z,24.97
2023-01-30T10:40:06.305Z,27.25
2023-01-30T10:43:38.519Z,26.30
2023-01-30T10:46:58.687Z,21.83
2023-01-30T10:50:15.787Z,24.37
2023-01-30T10:53:28.828Z,30.47
2023-01-30T10:56:43.209Z,31.80
2023-01-30T10:59:56.493Z,29.35
2023-01-30T11:03:10.412Z,20.55
2023-01-30T11:06:17.061Z,25.30
2023-01-30T11:09:20.420Z,26.57
2023-01-30T11:12:23.396Z,25.92
2023-01-30T11:15:40.444Z,30.88
2023-01-30T11:22:13.742Z,29.30
2023-01-30T11:25:23.200Z,27.80
2023-01-30T11:28:27.234Z,26.37
2023-01-30T11:31:40.914Z,27.50
2023-01-30T11:34:44.662Z,29.27
2023-01-30T11:37:47.575Z,29.53
2023-01-30T11:40:50.736Z,23.63
2023-01-30T11:44:03.260Z,19.52
2023-01-30T11:47:24.049Z,24.40
2023-01-30T11:50:41.718Z,20.02
2023-01-30T11:53:51.105Z,24.70
2023-01-30T11:56:56.515Z,25.50
2023-01-30T12:00:01.285Z,21.58
2023-01-30T12:03:16.436Z,23.62
2023-01-30T12:06:24.552Z,22.50
2023-01-30T12:09:36.868Z,22.70
2023-01-30T12:12:50.281Z,22.70
2023-01-30T12:16:13.372Z,25.50
2023-01-30T12:19:16.449Z,19.90
2023-01-30T12:22:31.450Z,23.35
2023-01-30T12:25:42.172Z,34.60
2023-01-30T12:29:04.152Z,31.77
2023-01-30T12:35:17.888Z,35.67
2023-01-30T12:38:23.896Z,28.70
2023-01-30T12:42:02.318Z,26.20
2023-01-30T12:45:28.735Z,32.37
2023-01-30T12:49:11.361Z,26.48
2023-01-30T12:52:54.132Z,20.85
2023-01-30T12:56:28.546Z,25.77
2023-01-30T12:59:47.171Z,25.20
2023-01-30T13:03:20.231Z,13.20
2023-01-30T13:06:29.536Z,25.85
2023-01-30T13:09:52.363Z,27.30
2023-01-30T13:13:23.581Z,26.45
2023-01-30T13:16:36.542Z,28.60
2023-01-30T13:19:49.027Z,36.80
2023-01-30T13:23:05.460Z,29.85
2023-01-30T13:26:12.795Z,30.52
2023-01-30T13:29:45.150Z,24.77
2023-01-30T13:32:50.509Z,27.70
2023-01-30T13:36:04.472Z,34.30
2023-01-30T13:42:29.866Z,30.60
2023-01-30T13:45:37.285Z,40.78
2023-01-30T13:48:56.780Z,54.30
2023-01-30T13:52:15.634Z,45.37
2023-01-30T13:55:24.705Z,52.92
2023-01-30T13:58:44.457Z,37.97
2023-01-30T14:01:59.697Z,31.90
2023-01-30T14:05:05.917Z,44.77
2023-01-30T14:08:12.733Z,38.20
2023-01-30T14:11:35.597Z,38.20
2023-01-30T14:15:21.748Z,35.08
2023-01-30T14:18:30.892Z,36.55
2023-01-30T14:21:34.453Z,38.20
2023-01-30T14:24:37.548Z,36.00
2023-01-30T14:27:40.172Z,44.72
2023-01-30T14:30:45.592Z,44.75
2023-01-30T14:33:50.003Z,38.05
2023-01-30T14:36:53.084Z,37.10
2023-01-30T14:40:00.690Z,25.37
2023-01-30T14:43:13.061Z,12.75
2023-01-30T14:46:15.748Z,9.23
2023-01-30T14:49:29.245Z,4.47
2023-01-30T14:52:38.134Z,8.20
2023-01-30T14:55:42.061Z,7.30
2023-01-30T14:58:56.847Z,8.68
2023-01-30T15:02:01.509Z,7.32
2023-01-30T15:05:10.547Z,7.82
2023-01-30T15:08:22.112Z,7.57
2023-01-30T15:11:29.937Z,8.07
2023-01-30T15:14:45.960Z,7.03
2023-01-30T15:18:09.708Z,4.85
2023-01-30T15:21:43.095Z,6.62
2023-01-30T15:24:54.331Z,6.73
2023-01-30T15:28:05.914Z,9.87
2023-01-30T15:31:18.701Z,15.00
2023-01-30T15:34:22.371Z,26.42
2023-01-30T15:37:34.221Z,9.15
2023-01-30T15:40:37.982Z,13.47
2023-01-30T15:43:49.637Z,8.53
2023-01-30T15:47:07.654Z,4.47
2023-01-30T15:50:11.012Z,9.27
2023-01-30T15:53:15.485Z,6.18
2023-01-30T15:56:20.213Z,7.60
2023-01-30T15:59:38.494Z,6.07
2023-01-30T16:02:42.909Z,6.65
2023-01-30T16:05:51.061Z,7.95
2023-01-30T16:09:18.632Z,9.95
2023-01-30T16:12:26.447Z,21.50
2023-01-30T16:15:33.822Z,11.40
2023-01-30T16:18:39.554Z,10.65
2023-01-30T16:21:45.314Z,8.90
2023-01-30T16:24:51.190Z,7.75
2023-01-30T16:27:54.408Z,6.77
2023-01-30T16:30:58.629Z,7.63
2023-01-30T16:34:01.420Z,6.35
2023-01-30T16:37:08.571Z,7.82
2023-01-30T16:40:11.145Z,11.95
2023-01-30T16:43:23.646Z,7.60
2023-01-30T16:46:29.236Z,8.33
2023-01-30T16:49:35.230Z,7.82
2023-01-30T16:52:46.687Z,9.15
2023-01-30T16:56:04.193Z,11.63
2023-01-30T16:59:19.042Z,10.20
2023-01-30T17:02:35.162Z,9.17
2023-01-30T17:05:40.108Z,16.08
2023-01-30T17:08:57.934Z,9.38
2023-01-30T17:12:00.780Z,11.38
2023-01-30T17:15:09.759Z,9.87
2023-01-30T17:18:13.130Z,8.43
2023-01-30T17:21:16.473Z,11.38
2023-01-30T17:24:21.424Z,20.52
2023-01-30T17:27:27.519Z,29.90
2023-01-30T17:30:30.872Z,10.97
2023-01-30T17:33:34.057Z,5.70
2023-01-30T17:36:36.548Z,6.55
2023-01-30T17:39:39.531Z,6.18
2023-01-30T17:42:42.227Z,7.40
2023-01-30T17:45:45.259Z,6.70
2023-01-30T17:48:48.487Z,7.33
2023-01-30T17:51:52.075Z,7.40
2023-01-30T17:54:54.808Z,9.13
2023-01-30T17:57:57.633Z,10.00
2023-01-30T18:01:00.186Z,11.40
2023-01-30T18:04:03.231Z,6.80
2023-01-30T18:07:09.677Z,14.80
2023-01-30T18:10:17.982Z,12.55
2023-01-30T18:13:21.207Z,11.12
2023-01-30T18:16:28.832Z,16.80
2023-01-30T18:19:31.909Z,22.13
2023-01-30T18:22:35.911Z,17.00
2023-01-30T18:25:38.844Z,10.18
2023-01-30T18:28:42.715Z,4.75
2023-01-30T18:31:45.585Z,10.13
2023-01-30T18:34:48.692Z,8.13
2023-01-30T18:37:51.892Z,7.60
2023-01-30T18:40:55.074Z,5.47
2023-01-30T18:44:01.237Z,11.20
2023-01-30T18:47:04.872Z,8.43
2023-01-30T18:50:08.363Z,9.23
2023-01-30T18:53:11.480Z,6.32
2023-01-30T18:56:17.003Z,6.10
2023-01-30T18:59:20.309Z,6.25
2023-01-30T19:02:23.151Z,9.97
2023-01-30T19:05:26.426Z,30.47
2023-01-30T19:08:30.670Z,8.50
2023-01-30T19:11:53.025Z,9.30
2023-01-30T19:14:55.692Z,12.20
2023-01-30T19:17:58.839Z,13.33
2023-01-30T19:21:01.813Z,43.33
2023-01-30T19:24:06.943Z,9.85
2023-01-30T19:27:13.843Z,6.47
2023-01-30T19:30:18.113Z,4.90
2023-01-30T19:33:21.379Z,6.07
2023-01-30T19:36:27.092Z,13.27
2023-01-30T19:39:29.967Z,9.35
2023-01-30T19:42:33.143Z,8.88
2023-01-30T19:45:36.302Z,5.60
2023-01-30T19:48:40.349Z,4.07
2023-01-30T19:51:43.283Z,5.00
2023-01-30T19:54:47.108Z,5.12
2023-01-30T19:57:50.353Z,7.32
2023-01-30T20:00:53.788Z,8.25
2023-01-30T20:03:57.517Z,7.27
2023-01-30T20:07:00.362Z,6.30
2023-01-30T20:10:07.077Z,5.20
2023-01-30T20:13:09.893Z,5.15
2023-01-30T20:16:25.480Z,7.53
2023-01-30T20:19:28.432Z,6.33
2023-01-30T20:22:31.529Z,4.73
2023-01-30T20:25:36.030Z,6.28
2023-01-30T20:28:39.326Z,8.68
2023-01-30T20:31:42.860Z,5.00
2023-01-30T20:34:45.995Z,4.63
2023-01-30T20:37:48.575Z,2.67
2023-01-30T20:40:51.727Z,4.47
2023-01-30T20:43:59.465Z,3.92
2023-01-30T20:47:02.308Z,3.22
2023-01-30T20:50:05.647Z,4.63
2023-01-30T20:53:08.907Z,5.27
2023-01-30T20:56:11.605Z,3.53
2023-01-30T20:59:20.296Z,5.82
2023-01-30T21:02:23.188Z,4.72
2023-01-30T21:05:26.019Z,4.00
2023-01-30T21:08:28.913Z,5.60
2023-01-30T21:11:32.387Z,6.43
2023-01-30T21:14:35.049Z,6.70
2023-01-30T21:17:38.418Z,5.47
2023-01-30T21:20:48.618Z,5.57
2023-01-30T21:23:54.301Z,4.33
2023-01-30T21:26:57.772Z,5.12
2023-01-30T21:30:00.790Z,4.10
2023-01-30T21:33:03.428Z,7.55
2023-01-30T21:36:07.358Z,7.00
2023-01-30T21:39:32.317Z,4.40
2023-01-30T21:42:53.750Z,5.55
2023-01-30T21:45:59.409Z,3.42
2023-01-30T21:49:02.344Z,4.25
2023-01-30T21:52:05.026Z,4.63
2023-01-30T21:55:08.435Z,3.47
2023-01-30T21:58:11.094Z,4.78
2023-01-30T22:01:14.422Z,4.15
2023-01-30T22:04:17.917Z,3.20
2023-01-30T22:07:20.435Z,2.80
2023-01-30T22:10:23.365Z,2.67
2023-01-30T22:13:25.959Z,2.75
2023-01-30T22:16:29.296Z,2.72
2023-01-30T22:19:35.690Z,3.80
2023-01-30T22:22:38.764Z,3.63
2023-01-30T22:25:41.326Z,3.43
2023-01-30T22:28:44.554Z,5.40
2023-01-30T22:31:47.156Z,4.37
2023-01-30T22:34:50.153Z,2.22
2023-01-30T22:37:52.708Z,3.53
2023-01-30T22:41:04.254Z,6.50
2023-01-30T22:44:08.863Z,4.07
2023-01-30T22:47:11.848Z,4.10
2023-01-30T22:50:14.423Z,2.85
2023-01-30T22:53:17.374Z,3.53
2023-01-30T22:56:29.251Z,4.30
2023-01-30T22:59:32.299Z,3.20
2023-01-30T23:02:35.007Z,2.90
2023-01-30T23:05:38.042Z,2.33
2023-01-30T23:08:43.747Z,4.63
2023-01-30T23:12:09.310Z,4.03
2023-01-30T23:15:11.843Z,4.65
2023-01-30T23:18:33.866Z,5.15
2023-01-30T23:21:54.318Z,5.05
2023-01-30T23:24:57.191Z,4.77
2023-01-30T23:28:00.434Z,2.60
2023-01-30T23:31:13.857Z,3.33
2023-01-30T23:34:18.220Z,2.53
2023-01-30T23:37:41.007Z,4.95
2023-01-30T23:40:46.731Z,4.70
2023-01-30T23:43:50.492Z,4.37
2023-01-30T23:46:53.097Z,5.45
2023-01-30T23:49:55.961Z,4.57
2023-01-30T23:52:58.432Z,3.60
2023-01-30T23:56:01.896Z,4.73
2023-01-30T23:59:05.399Z,3.83
